logo
Search for airport 
image banner adimage banner adimage banner ad
image banner ad

SCCU - Lolco

Located in Lonquimay, Chile

ICAO - SCCU, IATA -

Data provided by Airmate  

General information

Coordinates: S38°9'30" W71°25'28"
Elevation is 2132 feet MSL.
Magnetic variation is 5° East
View others Airports in Araucanía

Operational data

Special qualification required
Current time UTC:
Current local time:
Weather at : - ( 0 km )
METAR: PARY 162011Z AUTO 08006KT 10SM -RA BKN017 BKN021 OVC033 11/08 A2980 RMK AO2 RAB05 TSNO PNO $
View NOTAMs / SUP AIP / TFR affecting this airport [VIEW]
Communications frequencies: [VIEW]

Runways:

RWY identifierQFULength (ft)Width (ft)SurfaceLDA (ft)
0227°303764DIRT
20207°303764DIRT

Airport contact information

Address: Lonquimay Chile

Satellite view of SCCU